Boskydell, Illinois
Current Conditions -  °F | °C
As of 5:52 AM on Monday 24 Nov 2014 (Local Time) from KMDH Reporting Station
Overcast Overcast  
Wind Chill: 36°   Ceiling: 2300
Heat Index: 43°   Visibility: 10mi
Dew Point: 37°   Wind: 14mph
Humidity: 80%   Direction: 270°W
Pressure: 29.47"   Gusts: 29mph
Location:  37.7248°N, 89.197°W
Report Text: KMDH 241152Z AUTO 27012G25KT 10SM BKN023 OVC060 06/03 A2947 RMK AO2 PK WND 28032/1108 PRESRR SLP981 60028 70103 T00610028 10156 20061 53072 $
Loading
Personal Weather Stations






























Interactive Weather Map New forecast layout! Learn more

10-Day Weather Forecast

Advertisements
Track Severe Weather on mobile